University Park, Pennsylvania
Current Conditions -  °F | °C
As of 5:53 PM on Friday 31 Oct 2014 (Local Time) from KUNV Reporting Station
Overcast Overcast  
Wind Chill: 45°   Ceiling: 4900
Heat Index: 45°   Visibility: 10mi
Dew Point: 36°   Wind: 0mph
Humidity: 71%   Direction: NA
Pressure: 29.87"   Gusts: NA
Location:  40.8°N, 77.86°W
Report Text: KUNV 312153Z 00000KT 10SM OVC049 07/02 A2987
Loading
Personal Weather Stations






























Interactive Weather Map
Tropical Storm Tracking
New forecast layout! Learn more

10-Day Weather Forecast

Advertisements
Track Severe Weather on mobile